createdAt,value
2023-05-01T00:01:07.325Z,79.77
2023-05-01T00:03:37.225Z,79.94
2023-05-01T00:06:07.826Z,80.44
2023-05-01T00:08:37.594Z,79.33
2023-05-01T00:11:08.960Z,77.63
2023-05-01T00:13:38.259Z,77.89
2023-05-01T00:16:11.639Z,78.44
2023-05-01T00:18:41.370Z,80.29
2023-05-01T00:21:10.869Z,79.04
2023-05-01T00:23:40.573Z,78.50
2023-05-01T00:26:10.186Z,76.93
2023-05-01T00:28:41.220Z,76.13
2023-05-01T00:31:11.414Z,75.22
2023-05-01T00:33:40.920Z,75.33
2023-05-01T00:36:11.364Z,76.14
2023-05-01T00:38:40.649Z,76.72
2023-05-01T00:41:09.929Z,77.30
2023-05-01T00:43:39.360Z,77.83
2023-05-01T00:46:10.044Z,78.81
2023-05-01T00:48:39.405Z,78.19
2023-05-01T00:51:09.279Z,78.35
2023-05-01T00:53:38.978Z,79.85
2023-05-01T00:56:09.076Z,79.28
2023-05-01T00:58:38.670Z,79.33
2023-05-01T01:01:09.822Z,78.54
2023-05-01T01:03:39.266Z,77.19
2023-05-01T01:06:16.868Z,77.39
2023-05-01T01:09:14.953Z,76.88
2023-05-01T01:11:53.131Z,77.74
2023-05-01T01:14:28.159Z,77.80
2023-05-01T01:17:11.765Z,79.14
2023-05-01T01:19:47.159Z,79.18
2023-05-01T01:22:21.161Z,78.89
2023-05-01T01:25:20.204Z,78.00
2023-05-01T01:28:12.247Z,78.11
2023-05-01T01:30:43.857Z,77.56
2023-05-01T01:33:25.210Z,78.19
2023-05-01T01:35:59.061Z,78.45
2023-05-01T01:38:40.357Z,77.64
2023-05-01T01:41:28.114Z,77.07
2023-05-01T01:44:16.063Z,77.97
2023-05-01T01:46:45.967Z,77.59
2023-05-01T01:49:20.722Z,76.56
2023-05-01T01:51:50.937Z,77.87
2023-05-01T01:54:24.164Z,76.61
2023-05-01T01:56:53.918Z,76.69
2023-05-01T01:59:24.422Z,77.07
2023-05-01T02:01:55.087Z,76.73
2023-05-01T02:04:24.648Z,76.78
2023-05-01T02:06:56.406Z,77.59
2023-05-01T02:09:27.075Z,77.68
2023-05-01T02:11:56.590Z,77.13
2023-05-01T02:14:28.142Z,77.37
2023-05-01T02:16:58.822Z,77.69
2023-05-01T02:19:29.958Z,77.61
2023-05-01T02:21:59.921Z,77.44
2023-05-01T02:24:30.065Z,76.89
2023-05-01T02:27:11.544Z,77.41
2023-05-01T02:29:40.852Z,77.20
2023-05-01T02:32:10.183Z,77.70
2023-05-01T02:34:39.575Z,77.07
2023-05-01T02:37:11.496Z,77.42
2023-05-01T02:39:42.046Z,78.34
2023-05-01T02:42:13.144Z,77.24
2023-05-01T02:44:45.726Z,77.48
2023-05-01T02:47:15.960Z,78.76
2023-05-01T02:49:48.150Z,77.87
2023-05-01T02:52:18.672Z,78.54
2023-05-01T02:54:49.825Z,78.45
2023-05-01T02:57:20.419Z,78.98
2023-05-01T02:59:49.695Z,79.79
2023-05-01T03:02:18.972Z,79.94
2023-05-01T03:04:48.690Z,80.70
2023-05-01T03:07:18.276Z,79.15
2023-05-01T03:09:47.978Z,79.88
2023-05-01T03:12:17.266Z,80.44
2023-05-01T03:14:46.625Z,79.66
2023-05-01T03:17:16.025Z,79.55
2023-05-01T03:19:45.360Z,79.27
2023-05-01T03:22:15.420Z,79.59
2023-05-01T03:24:46.909Z,79.52
2023-05-01T03:27:16.482Z,78.02
2023-05-01T03:29:47.077Z,78.82
2023-05-01T03:32:18.184Z,79.29
2023-05-01T03:34:48.287Z,79.63
2023-05-01T03:37:18.727Z,80.31
2023-05-01T03:39:48.128Z,80.84
2023-05-01T03:42:35.696Z,81.17
2023-05-01T03:45:07.445Z,81.24
2023-05-01T03:47:37.302Z,79.92
2023-05-01T03:50:08.929Z,81.08
2023-05-01T03:52:39.588Z,79.70
2023-05-01T03:55:09.856Z,80.59
2023-05-01T03:57:47.375Z,81.15
2023-05-01T04:00:18.087Z,80.88
2023-05-01T04:02:48.006Z,80.69
2023-05-01T04:05:19.295Z,81.16
2023-05-01T04:07:50.325Z,81.06
2023-05-01T04:10:19.804Z,81.14
2023-05-01T04:12:51.068Z,81.51
2023-05-01T04:15:22.711Z,82.23
2023-05-01T04:17:52.932Z,82.74
2023-05-01T04:20:22.342Z,84.22
2023-05-01T04:22:52.023Z,82.36
2023-05-01T04:25:21.546Z,82.67
2023-05-01T04:27:52.751Z,82.17
2023-05-01T04:30:22.000Z,83.20
2023-05-01T04:32:51.520Z,82.98
2023-05-01T04:35:21.220Z,81.62
2023-05-01T04:37:50.672Z,81.32
2023-05-01T04:40:19.995Z,82.25
2023-05-01T04:42:49.361Z,82.01
2023-05-01T04:45:18.948Z,81.14
2023-05-01T04:47:48.365Z,82.16
2023-05-01T04:50:17.590Z,82.58
2023-05-01T04:52:48.321Z,84.02
2023-05-01T04:55:18.259Z,84.05
2023-05-01T04:57:49.272Z,82.97
2023-05-01T05:00:19.412Z,83.08
2023-05-01T05:02:50.654Z,82.52
2023-05-01T05:05:19.974Z,83.16
2023-05-01T05:07:51.063Z,82.20
2023-05-01T05:10:34.015Z,81.04
2023-05-01T05:13:17.428Z,80.55
2023-05-01T05:15:48.386Z,80.78
2023-05-01T05:18:19.955Z,80.58
2023-05-01T05:20:49.510Z,80.18
2023-05-01T05:23:19.212Z,81.69
2023-05-01T05:25:48.493Z,80.20
2023-05-01T05:28:18.588Z,81.55
2023-05-01T05:30:49.626Z,81.98
2023-05-01T05:33:20.895Z,82.10
2023-05-01T05:35:50.609Z,81.35
2023-05-01T05:38:21.342Z,82.54
2023-05-01T05:40:54.243Z,82.71
2023-05-01T05:43:26.022Z,81.84
2023-05-01T05:45:59.903Z,82.07
2023-05-01T05:48:29.987Z,81.92
2023-05-01T05:50:59.519Z,82.95
2023-05-01T05:53:29.038Z,82.15
2023-05-01T05:55:58.687Z,82.45
2023-05-01T05:58:28.766Z,82.75
2023-05-01T06:00:58.116Z,84.20
2023-05-01T06:03:27.624Z,84.61
2023-05-01T06:05:59.059Z,85.04
2023-05-01T06:08:28.637Z,83.85
2023-05-01T06:10:58.924Z,84.90
2023-05-01T06:13:29.091Z,84.40
2023-05-01T06:15:58.524Z,85.25
2023-05-01T06:18:27.898Z,84.46
2023-05-01T06:20:57.627Z,83.74
2023-05-01T06:23:27.261Z,83.62
2023-05-01T06:26:04.123Z,83.99
2023-05-01T06:28:33.544Z,84.03
2023-05-01T06:31:04.036Z,84.35
2023-05-01T06:33:34.974Z,83.56
2023-05-01T06:36:07.025Z,83.13
2023-05-01T06:38:36.269Z,83.11
2023-05-01T06:41:07.071Z,82.23
2023-05-01T06:43:36.500Z,83.01
2023-05-01T06:46:05.883Z,81.02
2023-05-01T06:48:36.869Z,81.53
2023-05-01T06:51:06.802Z,82.26
2023-05-01T06:53:36.797Z,79.98
2023-05-01T06:56:06.889Z,80.52
2023-05-01T06:58:36.140Z,80.45
2023-05-01T07:01:05.630Z,79.84
2023-05-01T07:03:35.011Z,80.62
2023-05-01T07:06:04.634Z,79.87
2023-05-01T07:08:33.881Z,79.22
2023-05-01T07:11:03.606Z,79.14
2023-05-01T07:13:33.149Z,77.72
2023-05-01T07:16:03.295Z,78.05
2023-05-01T07:18:32.574Z,77.12
2023-05-01T07:21:02.255Z,77.54
2023-05-01T07:23:31.497Z,77.77
2023-05-01T07:26:01.042Z,75.82
2023-05-01T07:28:30.650Z,75.36
2023-05-01T07:31:01.499Z,75.77
2023-05-01T07:33:30.841Z,72.55
2023-05-01T07:36:00.186Z,72.92
2023-05-01T07:38:29.472Z,71.75
2023-05-01T07:40:59.099Z,70.95
2023-05-01T07:43:28.672Z,72.00
2023-05-01T07:46:00.271Z,73.12
2023-05-01T07:48:30.498Z,73.07
2023-05-01T07:51:04.325Z,73.75
2023-05-01T07:53:33.855Z,72.68
2023-05-01T07:56:08.930Z,72.36
2023-05-01T07:58:38.674Z,74.97
2023-05-01T08:01:09.293Z,74.16
2023-05-01T08:03:40.751Z,72.99
2023-05-01T08:06:10.154Z,72.76
2023-05-01T08:08:39.408Z,72.51
2023-05-01T08:11:09.270Z,73.47
2023-05-01T08:13:38.568Z,73.38
2023-05-01T08:16:08.552Z,71.70
2023-05-01T08:18:38.264Z,71.50
2023-05-01T08:21:07.535Z,71.69
2023-05-01T08:23:36.800Z,70.23
2023-05-01T08:26:06.074Z,69.17
2023-05-01T08:28:38.584Z,67.32
2023-05-01T08:31:07.250Z,67.04
2023-05-01T08:33:36.728Z,66.02
2023-05-01T08:36:06.477Z,65.26
2023-05-01T08:38:35.927Z,64.91
2023-05-01T08:41:05.739Z,69.13
2023-05-01T08:43:34.978Z,67.58
2023-05-01T08:46:06.166Z,65.49
2023-05-01T08:48:37.213Z,65.95
2023-05-01T08:51:07.279Z,67.01
2023-05-01T08:53:37.638Z,66.40
2023-05-01T08:56:11.204Z,65.32
2023-05-01T08:58:41.533Z,66.10
2023-05-01T09:01:16.705Z,67.04
2023-05-01T09:03:46.688Z,67.87
2023-05-01T09:06:16.446Z,67.36
2023-05-01T09:08:45.896Z,68.23
2023-05-01T09:11:15.178Z,68.24
2023-05-01T09:13:44.416Z,67.84
2023-05-01T09:16:13.969Z,65.35
2023-05-01T09:18:43.936Z,67.16
2023-05-01T09:21:13.474Z,66.80
2023-05-01T09:23:43.150Z,66.74
2023-05-01T09:26:12.719Z,65.60
2023-05-01T09:28:46.392Z,66.04
2023-05-01T09:31:23.865Z,64.93
2023-05-01T09:33:56.538Z,66.26
2023-05-01T09:36:26.766Z,65.28
2023-05-01T09:38:56.780Z,66.79
2023-05-01T09:41:26.208Z,66.66
2023-05-01T09:43:57.118Z,64.12
2023-05-01T09:46:27.801Z,64.66
2023-05-01T09:49:03.125Z,63.94
2023-05-01T09:51:33.997Z,64.96
2023-05-01T09:54:05.074Z,67.41
2023-05-01T09:56:35.170Z,65.52
2023-05-01T09:59:19.418Z,65.87
2023-05-01T10:01:50.648Z,65.28
2023-05-01T10:04:23.353Z,67.17
2023-05-01T10:06:52.949Z,67.47
2023-05-01T10:09:29.685Z,65.52
2023-05-01T10:11:59.510Z,63.15
2023-05-01T10:14:30.295Z,62.14
2023-05-01T10:16:59.982Z,61.67
2023-05-01T10:19:29.744Z,59.49
2023-05-01T10:22:00.353Z,59.18
2023-05-01T10:24:29.966Z,62.60
2023-05-01T10:27:00.006Z,61.84
2023-05-01T10:29:30.652Z,63.21
2023-05-01T10:32:00.756Z,63.39
2023-05-01T10:34:30.574Z,62.65
2023-05-01T10:37:01.921Z,63.81
2023-05-01T10:39:35.807Z,64.80
2023-05-01T10:42:14.061Z,65.97
2023-05-01T10:44:46.302Z,66.73
2023-05-01T10:47:35.318Z,69.70
2023-05-01T10:50:07.196Z,69.35
2023-05-01T10:53:16.052Z,67.37
2023-05-01T10:55:50.258Z,67.80
2023-05-01T10:58:41.292Z,68.70
2023-05-01T11:01:36.915Z,70.44
2023-05-01T11:04:23.544Z,69.43
2023-05-01T11:07:14.236Z,71.85
2023-05-01T11:09:51.142Z,69.69
2023-05-01T11:12:49.742Z,69.00
2023-05-01T11:15:34.082Z,72.30
2023-05-01T11:18:06.531Z,73.11
2023-05-01T11:20:45.474Z,76.80
2023-05-01T11:23:19.523Z,76.80
2023-05-01T11:25:49.811Z,78.06
2023-05-01T11:28:21.480Z,77.49
2023-05-01T11:30:51.581Z,81.18
2023-05-01T11:33:26.137Z,80.59
2023-05-01T11:36:02.597Z,86.22
2023-05-01T11:38:31.876Z,81.97
2023-05-01T11:41:03.795Z,84.75
2023-05-01T11:43:33.354Z,88.43
2023-05-01T11:46:02.849Z,87.16
2023-05-01T11:48:33.407Z,87.30
2023-05-01T11:51:04.503Z,87.32
2023-05-01T11:53:33.764Z,87.80
2023-05-01T11:56:06.947Z,87.92
2023-05-01T11:58:36.706Z,87.56
2023-05-01T12:01:07.534Z,88.09
2023-05-01T12:03:43.954Z,89.38
2023-05-01T12:06:14.262Z,89.02
2023-05-01T12:08:45.669Z,88.39
2023-05-01T12:11:15.347Z,89.49
2023-05-01T12:13:46.471Z,87.71
2023-05-01T12:16:16.278Z,88.14
2023-05-01T12:18:45.879Z,87.24
2023-05-01T12:21:19.017Z,87.97
2023-05-01T12:23:51.393Z,87.09
2023-05-01T12:26:26.019Z,84.99
2023-05-01T12:29:02.946Z,84.08
2023-05-01T12:31:33.139Z,83.72
2023-05-01T12:34:06.869Z,80.82
2023-05-01T12:36:37.472Z,80.90
2023-05-01T12:39:12.404Z,79.51
2023-05-01T12:41:44.734Z,78.95
2023-05-01T12:44:25.227Z,78.23
2023-05-01T12:46:57.058Z,74.71
2023-05-01T12:49:27.639Z,72.62
2023-05-01T12:52:00.001Z,68.85
2023-05-01T12:54:40.814Z,69.67
2023-05-01T12:57:12.183Z,67.25
2023-05-01T12:59:42.683Z,66.31
2023-05-01T13:02:15.790Z,64.60
2023-05-01T13:04:46.512Z,67.07
2023-05-01T13:07:18.230Z,63.41
2023-05-01T13:09:55.196Z,63.89
2023-05-01T13:12:26.342Z,65.76
2023-05-01T13:14:55.877Z,65.18
2023-05-01T13:17:30.525Z,65.63
2023-05-01T13:20:04.891Z,63.07
2023-05-01T13:22:35.895Z,64.09
2023-05-01T13:25:20.764Z,64.09
2023-05-01T13:27:51.561Z,62.77
2023-05-01T13:30:34.762Z,59.69
2023-05-01T13:33:07.169Z,57.19
2023-05-01T13:35:38.308Z,56.19
2023-05-01T13:38:09.872Z,57.26
2023-05-01T13:40:42.019Z,60.39
2023-05-01T13:43:15.842Z,60.34
2023-05-01T13:45:47.509Z,54.24
2023-05-01T13:48:18.839Z,53.42
2023-05-01T13:50:48.285Z,54.02
2023-05-01T13:53:19.169Z,55.79
2023-05-01T13:55:49.114Z,56.12
2023-05-01T13:58:18.465Z,53.33
2023-05-01T14:00:47.714Z,52.29
2023-05-01T14:03:18.831Z,53.25
2023-05-01T14:05:49.599Z,53.92
2023-05-01T14:08:23.982Z,52.06
2023-05-01T14:10:53.296Z,53.91
2023-05-01T14:13:22.570Z,51.79
2023-05-01T14:15:51.809Z,52.71
2023-05-01T14:18:22.891Z,51.08
2023-05-01T14:20:52.181Z,50.29
2023-05-01T14:23:23.373Z,53.02
2023-05-01T14:25:52.699Z,51.34
2023-05-01T14:28:22.724Z,52.62
2023-05-01T14:30:52.544Z,55.04
2023-05-01T14:33:22.145Z,58.41
2023-05-01T14:35:53.335Z,59.42
2023-05-01T14:38:23.484Z,61.69
2023-05-01T14:40:52.784Z,61.60
2023-05-01T14:43:22.710Z,62.65
2023-05-01T14:45:52.736Z,62.24
2023-05-01T14:48:24.408Z,61.42
2023-05-01T14:50:56.050Z,63.95
2023-05-01T14:53:25.753Z,62.58
2023-05-01T14:55:54.997Z,63.99
2023-05-01T14:58:24.426Z,65.66
2023-05-01T15:00:53.690Z,65.44
2023-05-01T15:03:23.381Z,67.39
2023-05-01T15:05:53.292Z,66.39
2023-05-01T15:08:22.866Z,66.45
2023-05-01T15:10:55.753Z,66.52
2023-05-01T15:13:25.711Z,69.05
2023-05-01T15:15:56.372Z,68.25
2023-05-01T15:18:26.327Z,69.05
2023-05-01T15:20:57.027Z,70.46
2023-05-01T15:23:27.298Z,68.53
2023-05-01T15:25:56.926Z,69.12
2023-05-01T15:28:26.796Z,68.42
2023-05-01T15:30:56.334Z,63.43
2023-05-01T15:33:25.936Z,63.11
2023-05-01T15:35:55.719Z,63.15
2023-05-01T15:38:26.162Z,64.42
2023-05-01T15:40:56.705Z,61.02
2023-05-01T15:43:25.988Z,60.38
2023-05-01T15:45:57.640Z,58.80
2023-05-01T15:48:27.402Z,60.46
2023-05-01T15:50:56.872Z,62.43
2023-05-01T15:53:26.143Z,62.64
2023-05-01T15:55:59.530Z,61.04
2023-05-01T15:58:28.795Z,65.05
2023-05-01T16:00:58.625Z,59.88
2023-05-01T16:03:28.566Z,59.63
2023-05-01T16:05:59.146Z,59.19
2023-05-01T16:08:28.826Z,58.31
2023-05-01T16:10:58.908Z,56.73
2023-05-01T16:13:28.238Z,57.75
2023-05-01T16:15:57.529Z,57.93
2023-05-01T16:18:27.122Z,54.68
2023-05-01T16:20:58.222Z,55.49
2023-05-01T16:23:27.895Z,57.02
2023-05-01T16:25:57.400Z,56.98
2023-05-01T16:28:26.687Z,59.05
2023-05-01T16:30:56.138Z,59.05
2023-05-01T16:33:25.538Z,59.93
2023-05-01T16:35:55.039Z,60.26
2023-05-01T16:38:24.295Z,60.48
2023-05-01T16:40:54.135Z,60.97
2023-05-01T16:43:23.414Z,61.99
2023-05-01T16:45:54.657Z,61.23
2023-05-01T16:48:25.134Z,58.88
2023-05-01T16:50:54.611Z,56.24
2023-05-01T16:53:24.436Z,54.31
2023-05-01T16:55:53.726Z,56.54
2023-05-01T16:58:23.007Z,57.13
2023-05-01T17:00:52.674Z,57.57
2023-05-01T17:03:22.719Z,56.30
2023-05-01T17:05:52.211Z,56.81
2023-05-01T17:08:21.829Z,58.18
2023-05-01T17:10:51.290Z,56.91
2023-05-01T17:13:21.289Z,57.95
2023-05-01T17:15:52.563Z,58.62
2023-05-01T17:18:22.108Z,58.24
2023-05-01T17:20:52.251Z,60.86
2023-05-01T17:23:23.451Z,62.38
2023-05-01T17:25:52.738Z,62.64
2023-05-01T17:28:22.409Z,62.22
2023-05-01T17:30:52.675Z,63.95
2023-05-01T17:33:22.272Z,65.09
2023-05-01T17:35:54.334Z,66.24
2023-05-01T17:38:23.626Z,64.79
2023-05-01T17:40:53.265Z,66.63
2023-05-01T17:43:22.615Z,67.73
2023-05-01T17:45:51.992Z,66.82
2023-05-01T17:48:21.720Z,66.61
2023-05-01T17:50:54.124Z,66.64
2023-05-01T17:53:23.547Z,67.68
2023-05-01T17:55:52.942Z,69.24
2023-05-01T17:58:22.872Z,69.27
2023-05-01T18:00:52.196Z,70.08
2023-05-01T18:03:21.757Z,70.37
2023-05-01T18:05:51.136Z,69.97
2023-05-01T18:08:20.666Z,70.38
2023-05-01T18:10:50.022Z,70.98
2023-05-01T18:13:20.296Z,71.07
2023-05-01T18:15:51.906Z,69.62
2023-05-01T18:18:20.552Z,70.07
2023-05-01T18:20:49.909Z,70.57
2023-05-01T18:23:19.800Z,70.55
2023-05-01T18:25:49.042Z,70.42
2023-05-01T18:28:19.165Z,70.76
2023-05-01T18:30:48.423Z,71.07
2023-05-01T18:33:18.208Z,71.54
2023-05-01T18:35:47.994Z,72.39
2023-05-01T18:38:17.387Z,72.36
2023-05-01T18:40:47.682Z,72.48
2023-05-01T18:43:16.949Z,73.07
2023-05-01T18:45:46.254Z,73.86
2023-05-01T18:48:15.781Z,75.67
2023-05-01T18:50:51.422Z,75.29
2023-05-01T18:53:17.410Z,75.22
2023-05-01T18:55:46.678Z,76.31
2023-05-01T18:58:15.959Z,77.66
2023-05-01T19:00:45.302Z,79.18
2023-05-01T19:03:14.561Z,80.58
2023-05-01T19:05:44.057Z,81.42
2023-05-01T19:08:13.720Z,81.60
2023-05-01T19:10:43.059Z,82.11
2023-05-01T19:13:12.835Z,83.44
2023-05-01T19:15:43.731Z,83.60
2023-05-01T19:18:13.376Z,83.04
2023-05-01T19:20:45.874Z,83.97
2023-05-01T19:23:14.720Z,85.25
2023-05-01T19:25:43.964Z,85.18
2023-05-01T19:28:13.383Z,84.72
2023-05-01T19:30:42.797Z,85.20
2023-05-01T19:33:12.290Z,85.09
2023-05-01T19:35:41.826Z,85.89
2023-05-01T19:38:11.437Z,85.20
2023-05-01T19:40:42.371Z,85.72
2023-05-01T19:43:13.325Z,87.08
2023-05-01T19:45:43.264Z,87.67
2023-05-01T19:48:12.834Z,87.84
2023-05-01T19:50:44.007Z,88.06
2023-05-01T19:53:13.537Z,88.21
2023-05-01T19:55:44.179Z,87.99
2023-05-01T19:58:15.132Z,88.38
2023-05-01T20:00:44.568Z,88.69
2023-05-01T20:03:15.634Z,89.82
2023-05-01T20:05:45.269Z,90.40
2023-05-01T20:08:14.781Z,91.56
2023-05-01T20:10:44.375Z,91.81
2023-05-01T20:13:13.760Z,91.85
2023-05-01T20:15:43.424Z,91.87
2023-05-01T20:18:14.074Z,92.20
2023-05-01T20:20:43.495Z,92.06
2023-05-01T20:23:18.981Z,92.86
2023-05-01T20:25:48.830Z,93.48
2023-05-01T20:28:18.988Z,93.73
2023-05-01T20:30:49.652Z,93.93
2023-05-01T20:33:19.354Z,94.10
2023-05-01T20:35:48.956Z,94.39
2023-05-01T20:38:18.417Z,94.10
2023-05-01T20:40:48.203Z,94.35
2023-05-01T20:43:17.520Z,94.18
2023-05-01T20:45:47.022Z,93.83
2023-05-01T20:48:16.511Z,93.93
2023-05-01T20:50:47.627Z,93.73
2023-05-01T20:53:16.999Z,94.26
2023-05-01T20:55:47.189Z,94.26
2023-05-01T20:58:16.837Z,94.77
2023-05-01T21:00:46.742Z,94.20
2023-05-01T21:03:17.005Z,94.52
2023-05-01T21:05:46.577Z,94.71
2023-05-01T21:08:15.969Z,94.86
2023-05-01T21:10:45.608Z,94.80
2023-05-01T21:13:15.292Z,94.75
2023-05-01T21:15:44.734Z,94.19
2023-05-01T21:18:17.332Z,94.45
2023-05-01T21:20:48.250Z,94.20
2023-05-01T21:23:18.968Z,93.72
2023-05-01T21:25:48.339Z,92.59
2023-05-01T21:28:17.746Z,92.42
2023-05-01T21:30:49.820Z,91.64
2023-05-01T21:33:19.394Z,91.19
2023-05-01T21:35:49.775Z,92.36
2023-05-01T21:38:19.078Z,92.04
2023-05-01T21:40:48.448Z,92.47
2023-05-01T21:43:20.183Z,92.12
2023-05-01T21:45:49.497Z,92.17
2023-05-01T21:48:20.612Z,91.84
2023-05-01T21:50:51.325Z,91.19
2023-05-01T21:53:20.635Z,90.97
2023-05-01T21:55:50.073Z,90.90
2023-05-01T21:58:19.429Z,91.01
2023-05-01T22:00:48.985Z,90.82
2023-05-01T22:03:19.686Z,90.89
2023-05-01T22:05:49.764Z,91.26
2023-05-01T22:08:20.188Z,90.49
2023-05-01T22:10:49.469Z,91.50
2023-05-01T22:13:19.039Z,90.78
2023-05-01T22:15:49.148Z,91.49
2023-05-01T22:18:19.768Z,91.50
2023-05-01T22:20:49.487Z,92.06
2023-05-01T22:23:18.939Z,92.88
2023-05-01T22:25:48.217Z,93.17
2023-05-01T22:28:18.123Z,93.89
2023-05-01T22:30:48.096Z,94.48
2023-05-01T22:33:17.659Z,95.09
2023-05-01T22:35:47.019Z,95.10
2023-05-01T22:38:16.456Z,94.86
2023-05-01T22:40:45.676Z,95.39
2023-05-01T22:43:15.437Z,95.40
2023-05-01T22:45:44.683Z,96.04
2023-05-01T22:48:14.055Z,95.76
2023-05-01T22:50:43.637Z,96.25
2023-05-01T22:53:13.281Z,96.91
2023-05-01T22:55:42.745Z,96.47
2023-05-01T22:58:12.394Z,96.68
2023-05-01T23:00:41.950Z,96.44
2023-05-01T23:03:12.309Z,97.83
2023-05-01T23:05:41.964Z,97.33
2023-05-01T23:08:12.089Z,97.85
2023-05-01T23:10:42.691Z,98.53
2023-05-01T23:13:23.776Z,98.87
2023-05-01T23:15:53.364Z,99.27
2023-05-01T23:18:32.134Z,100.00
2023-05-01T23:21:02.004Z,100.00
2023-05-01T23:23:32.231Z,100.00
2023-05-01T23:26:02.431Z,100.00
2023-05-01T23:28:31.737Z,100.00
2023-05-01T23:31:03.160Z,100.00
2023-05-01T23:33:34.975Z,100.00
2023-05-01T23:36:05.336Z,100.00
2023-05-01T23:38:35.040Z,100.00
2023-05-01T23:41:05.702Z,100.00
2023-05-01T23:43:36.112Z,100.00
2023-05-01T23:46:07.759Z,100.00
2023-05-01T23:48:37.721Z,100.00
2023-05-01T23:51:07.434Z,100.00
2023-05-01T23:53:36.715Z,100.00
2023-05-01T23:56:07.738Z,100.00
2023-05-01T23:58:37.323Z,100.00
